עמוד ראשי
METAR-TAF:

METAR-TAF

שדות תעופה :

נמל התעופה חיפה

חיפה, ישראל

קו רוחב: 32-48N, קו אורך: 035-02E, גובה: 8מטר

METAR: חסר

זמן: 03:16 (00:16 UTC)

תחזית

הדו"ח נערך לפני 51דקות, בשעה 23:25 UTC
תחזית בתוקף מ 16 ב 00 UTC עד 16 ב 24 UTC
רוח 4קשר עם כיוונים משתנים
ראות 10 קילומטר או יותר
מעט עננים בגובה 1500רגל
הסתברות 40% :
זמנית מ -
16 ב 01 UTC עד 16 ב 05 UTC
ראות: 8000מטר
עננים בינוניים בגובה 1000רגל
יעשה מ
16 ב 07 UTC עד 16 ב 09 UTC
רוח 10קשר מכיוון מערב
ראות 10 קילומטר או יותר
ללא עננים שבסיסם נמוך מ 5000 רגל או קומולונימבוס
יעשה מ
16 ב 16 UTC עד 16 ב 18 UTC
רוח 4קשר עם כיוונים משתנים
ראות 10 קילומטר או יותר
מעט עננים בגובה 1700רגל
הסתברות 40% :
זמנית מ -
16 ב 21 UTC עד 16 ב 24 UTC
ראות: 7000מטר
עננים בינוניים בגובה 1300רגל

TAF: LLHA 152325Z 1600/1624 VRB04KT 9999 FEW015 PROB40 TEMPO 1601/1605 8000 BKN010 BECMG 1607/1609 27010KT CAVOK BECMG 1616/1618 VRB04KT 9999 FEW017 PROB40 TEMPO 1621/1624 7000 BKN013 TX32/1610Z TN24/1603Z

תצפיות ותחזיות מזג אוויר לגבי יותר מ- 4,000 שדות תעופה ברחבי העולם. דוחות METAR ו- TAF.

התחנות הזמינות מסומנות בנקודות צהובות ואדומות על גבי המפה.

העבר את העכבר לנקודה הצבעונית על מנת לראות את שם התחנה.

לאחר מכן, לחץ כדי לראות את תוכן ואת תחזיות מזג האוויר.

כדי לשנות את המפה: לחץ על הכפתורים הירוקים עם הפלוס השחור כדי להתקרב; על הכפתור הירוק עם המקף כדי להתרחק; או בחיצים הירוקים למפות סמוכות.


METAR-TAF: